Portada
METAR-TAF:

METAR-TAF

Aeroports :

Brighton, Anglaterra

latitud: 50-50N, longitud: 000-17W, altitud: 2 m

Observació

L'informe es va fer fa 1 hora i 50 minuts, a les 18:50 UTC
Vent 6 kt del Oest
Temperatura 15°C
Humitat 88%
Pressió 1014 hPa
Visibilitat 10 km o més
Núvols disperses a una alçada de 4800 ft

METAR: EGKA 281850Z 26006KT 9999 SCT048 15/13 Q1014

Hora: 21:40 (20:40 UTC)

Pronòstic

L'informe es va fer fa 6 hores i 34 minuts, a les 14:06 UTC
Pronòstic vàlid del 28 a les 15 UTC al 28 a les 19 UTC
Vent 8 kt del Oest
Visibilitat 10 km o més
Escasses núvols a una alçada de 2500 ft
Probabilitat 30% :
Temporalment
l' 28 a les 17 UTC al 28 a les 19 UTC
Cel ennuvolat a una alçada de 1300 ft

TAF: EGKA 281406Z 2815/2819 28008KT 9999 FEW025 PROB30 TEMPO 2817/2819 BKN013

Observacions i pronòstics meteorològics de més de 4000 aeroports (METAR i TAF).

Les estacions disponibles són els punts grocs i vermells al mapa.

Posi el ratolí al punt desitjat per veure el nom de l'estació.

Feu clic per veure les observacions i els pronòstics meteorològics.

Per canviar el mapa: feu clic els botons verds amb una creu de color negre per apropar; al botó verd amb un guió per allunyar la imatge; o en les fletxes verdes per a mapes adjacents.


METAR-TAF: